Miguel Pereira, Brazil
Current Conditions -  °F | °C
As of 12:00 PM on Saturday 22 Nov 2014 (Local Time) from SBGL Reporting Station
Clear Clear  
Wind Chill: 95°   Ceiling: Unl
Heat Index: 95°   Visibility: 6mi
Dew Point: 61°   Wind: 0mph
Humidity: 32%   Direction: NA
Pressure: 29.83"   Gusts: NA
Location:  22.45°S, 43.47°W
Report Text: SBGL 221400Z 00000KT CAVOK 35/16 Q1010
Loading
Personal Weather Stations






























Interactive Weather Map New forecast layout! Learn more

10-Day Weather Forecast

Advertisements
Track Severe Weather on mobile